Cotton, MN (55724)

5:53 PM CDT on August 24, 2016 (GMT -0500)
Leisure Lake,Mn | | Change Station

Elev 1427 ft 47.33 °N, 92.34 °W | Updated 14 minutes ago

Clear
Clear
75.4 °F
Feels Like 78 °F
N
2.7
Wind Variable Wind from ESE

Today
High -- | Low -- °F
--% Chance of Precip.
Yesterday
High -- | Low -- °F
Precip. -- in
Pressure 29.88 in
Visibility 10.0 miles
Clouds Clear
Heat Index 78 °F
Dew Point 59 °F
Humidity 57%
Rainfall 0.00 in
Snow Depth Not available.
6:19 AM 8:04 PM
Waning Gibbous, 52% visible
METAR KEVM 242233Z AUTO 28012G17KT 10SM CLR 24/10 A2988 RMK AO2 T02410097
Pressure 29.88 in
Visibility 10.0 miles
Clouds Clear
Heat Index 78 °F
Dew Point 59 °F
Humidity 57%
Rainfall 0.00 in
Snow Depth Not available.
6:19 AM 8:04 PM
Waning Gibbous, 52% visible
METAR KEVM 242233Z AUTO 28012G17KT 10SM CLR 24/10 A2988 RMK AO2 T02410097

10-Day Weather Forecast

Almanac

Astronomy

Aug. 24, 2016 Rise Set
Actual Time
Civil Twilight
Nautical Twilight
Astronomical Twilight
Moon
Length of Visible Light
Length of Day
Tomorrow will be .
, % of the Moon is Illuminated

Today's Extremes

State Highs State Lows

Community

WunderPhotos

Upload Photos

1,934,728 photos uploaded!

WunderBlog® & News

Nearby

Air Quality

  Air Quality AQ Index Pollutant
Not available.

Snow Depth

Station Depth Elevation

Earthquake Activity

City Distance Mag. Time & Date
Minimum magnitude displayed is 2.5.

Coastal Water Temperatures

Place Temperature

Stations

Nearby Weather Stations

Station Location Temp. Windchill Dew Point Humidity Wind Precip. Elev Updated Type
                   

Watches & Warnings

There are currently no watches in effect.